St. HILARI SACALM (La Selva)





Hora UTC 22:35
Temperatura 20.5 ºC
Suelo 15 cm 18.0 ºC
Humedad 81.2 %
Presión 1018.7 hPa
Pluja 0.0 mm
Velocidad viento 0.1 km/h
Dirección viento WSW
Radiación solar 0.1 W/m²

Datos diarios 2024-07-24



Hora UTC (invierno +1h; verano +2h)
Temperatura (ºC) Humedad (%) Presión (hPa) Velocidad viento (km/h) Precipitación (mm) Radiación solar (W/m²)
Hora UTC Aire Suelo 15 cm Humedad Presión Vel. Dir. Vel. Max Dir. Intent. máx 5 min. Rad. Sol.
00:05 19.4 17.1 78.8 1022.2 2.3 WSW 2.3 WSW 0.0 0.1
00:10 19.4 17.0 78.9 1022.2 1.4 WSW 6.1 W 0.0 0.1
00:15 19.3 16.9 79.2 1022.2 1.9 SW 8.8 SW 0.0 0.1
00:20 19.2 16.8 78.7 1022.2 4.3 WSW 8.8 WSW 0.0 0.1
00:25 19.1 16.9 78.9 1022.1 4.6 WSW 11.5 WSW 0.0 0.1
00:30 19.1 16.8 79.1 1022.1 5.0 WSW 8.8 WSW 0.0 0.1
00:35 19.0 16.9 79.1 1022.0 4.8 WSW 8.8 WSW 0.0 0.1
00:40 19.0 16.9 79.3 1021.9 4.9 WSW 11.5 WSW 0.0 0.1
00:45 19.0 16.9 79.0 1021.9 6.0 WSW 11.5 WSW 0.0 0.1
00:50 19.0 16.8 78.9 1021.9 5.3 WSW 8.8 W 0.0 0.1
00:55 19.1 16.8 78.4 1021.9 5.5 WSW 8.8 WSW 0.0 0.1
01:00 19.1 16.9 78.4 1021.9 4.7 WSW 8.8 W 0.0 0.1
01:05 19.2 16.9 77.9 1021.9 2.8 WSW 8.8 WSW 0.0 0.1
01:10 19.1 16.8 78.4 1021.9 1.8 WSW 6.1 SW 0.0 0.1
01:15 19.1 16.5 78.8 1021.8 0.5 WSW 6.1 SW 0.0 0.1
01:20 19.0 16.4 78.8 1021.8 2.7 WSW 11.5 WSW 0.0 0.1
01:25 19.0 16.7 78.7 1021.7 6.1 WSW 11.5 WNW 0.0 0.1
01:30 19.0 16.8 79.3 1021.7 4.2 WSW 8.8 WNW 0.0 0.1
01:35 19.0 16.7 79.6 1021.7 5.2 WSW 8.8 SW 0.0 0.1
01:40 19.0 16.7 78.9 1021.7 5.6 WSW 8.8 W 0.0 0.1
01:45 19.1 16.8 78.3 1021.7 5.1 W 8.8 WSW 0.0 0.1
01:50 19.2 17.0 78.0 1021.7 4.3 WSW 8.8 WSW 0.0 0.1
01:55 19.2 16.9 77.9 1021.6 6.1 WSW 11.5 WSW 0.0 0.1
02:00 19.1 16.8 78.4 1021.6 2.5 WSW 6.1 WSW 0.0 0.1
02:05 19.1 16.7 78.6 1021.5 5.1 SW 8.8 SSW 0.0 0.1
02:10 19.0 16.6 79.1 1021.4 3.1 WSW 6.1 WSW 0.0 0.1
02:15 18.9 16.4 80.1 1021.4 3.0 W 6.1 WNW 0.0 0.2
02:20 18.9 16.2 80.9 1021.3 2.5 W 6.1 WNW 0.0 0.1
02:25 18.9 16.3 80.7 1021.3 2.7 W 6.1 WNW 0.0 0.1
02:30 18.9 16.2 81.0 1021.3 2.0 WSW 6.1 W 0.0 0.1
02:35 18.9 16.2 81.6 1021.3 1.7 W 6.1 W 0.0 0.1
02:40 19.0 16.2 81.8 1021.3 2.4 W 8.8 NW 0.0 0.1
02:45 18.9 16.2 81.9 1021.3 4.0 WNW 8.8 W 0.0 0.1
02:50 19.1 16.0 82.5 1021.3 3.7 WNW 8.8 NW 0.0 0.1
02:55 19.4 15.9 82.6 1021.2 4.9 WNW 11.5 WNW 0.0 0.1
03:00 19.9 15.9 81.4 1021.2 3.2 WNW 8.8 WNW 0.0 0.1
03:05 20.2 16.2 80.5 1021.2 3.8 WNW 8.8 NW 0.0 0.1
03:10 20.5 16.5 79.0 1021.2 4.4 WNW 8.8 WNW 0.0 0.1
03:15 20.6 16.6 78.5 1021.1 2.8 WNW 8.8 WNW 0.0 0.1
03:20 20.5 16.3 78.7 1021.1 2.1 WNW 6.1 WNW 0.0 0.1
03:25 20.2 15.9 79.1 1021.1 2.6 WNW 6.1 NW 0.0 0.1
03:30 20.0 15.8 80.1 1021.1 3.3 W 6.1 WNW 0.0 0.1
03:35 19.9 15.9 80.4 1021.1 1.8 WSW 6.1 SW 0.0 0.1
03:40 19.7 15.9 81.2 1021.1 1.6 SSW 6.1 WSW 0.0 0.1
03:45 19.5 15.9 81.9 1021.1 1.1 WSW 6.1 SW 0.0 0.1
03:50 19.3 15.7 83.0 1021.1 2.6 WSW 6.1 WSW 0.0 0.1
03:55 19.1 15.7 83.8 1021.1 2.8 W 6.1 W 0.0 0.1
04:00 19.0 15.6 84.4 1021.1 3.0 W 6.1 W 0.0 0.1
04:05 18.9 15.5 84.7 1021.2 3.8 W 8.8 WSW 0.0 0.1
04:10 18.9 15.6 84.7 1021.2 2.8 W 8.8 W 0.0 0.1
04:15 18.8 15.6 84.5 1021.2 2.2 WSW 6.1 WSW 0.0 0.1
04:20 18.7 15.5 85.2 1021.2 1.6 WNW 6.1 W 0.0 0.2
04:25 18.7 15.5 85.4 1021.2 1.3 WNW 8.8 WNW 0.0 0.3
04:30 18.7 15.6 85.2 1021.2 1.7 WSW 6.1 SSW 0.0 0.8
04:35 18.7 15.5 85.4 1021.2 2.4 W 8.8 W 0.0 1.5
04:40 18.7 15.4 85.3 1021.2 0.9 W 6.1 WSW 0.0 2.6
04:45 18.6 15.4 85.3 1021.2 2.6 WNW 6.1 W 0.0 4.4
04:50 18.5 15.0 85.6 1021.2 2.4 W 6.1 WNW 0.0 6.5
04:55 18.5 15.2 86.1 1021.1 3.0 WSW 8.8 WSW 0.0 9.3
05:00 18.6 15.6 86.0 1021.1 2.9 SW 6.1 WSW 0.0 11.7
05:05 18.6 15.9 86.1 1021.1 4.0 WSW 8.8 SW 0.0 14.6
05:10 18.6 16.0 86.2 1021.1 3.1 WSW 6.1 WSW 0.0 18.0
05:15 18.6 16.1 86.1 1021.1 2.0 WSW 6.1 SW 0.0 44.6
05:20 18.9 16.2 85.1 1021.1 1.9 WSW 6.1 WSW 0.0 58.8
05:25 19.4 16.2 82.9 1021.1 2.2 W 6.1 SW 0.0 74.5
05:30 19.8 16.2 80.8 1021.1 1.7 WNW 6.1 WNW 0.0 86.4
05:35 20.5 16.3 78.5 1021.1 0.9 SW 6.1 SW 0.0 99.2
05:40 20.9 16.6 76.5 1021.1 1.9 WSW 6.1 WSW 0.0 113.0
05:45 21.2 16.9 76.1 1021.1 1.4 WSW 6.1 WNW 0.0 126.7
05:50 21.9 17.3 73.5 1021.2 1.7 WSW 6.1 SW 0.0 141.4
05:55 22.4 17.8 71.2 1021.2 1.1 W 6.1 WSW 0.0 126.0
06:00 22.8 18.7 69.2 1021.2 1.5 WNW 6.1 WNW 0.0 166.1
06:05 23.0 19.7 67.9 1021.2 0.8 NW 6.1 WNW 0.0 184.9
06:10 23.5 20.5 66.3 1021.2 0.5 W 6.1 WNW 0.0 199.9
06:15 24.0 22.0 63.8 1021.2 2.1 WNW 6.1 WNW 0.0 215.5
06:20 24.0 23.1 63.4 1021.2 1.8 WNW 6.1 WNW 0.0 230.9
06:25 23.9 24.3 63.0 1021.2 4.5 NW 8.8 WNW 0.0 246.2
06:30 24.2 25.7 63.2 1021.3 1.2 NW 6.1 WSW 0.0 261.1
06:35 24.7 26.8 60.8 1021.2 1.7 NNW 8.8 NNE 0.0 276.5
06:40 24.8 27.4 60.3 1021.2 3.0 NNW 8.8 N 0.0 292.2
06:45 24.9 28.0 60.5 1021.2 2.7 NNW 8.8 NNW 0.0 307.3
06:50 25.1 28.4 59.3 1021.2 2.4 NW 8.8 N 0.0 322.3
06:55 25.4 29.2 58.7 1021.2 1.2 N 6.1 N 0.0 338.6
07:00 25.6 29.9 58.2 1021.1 3.2 N 8.8 N 0.0 354.4
07:05 25.9 30.5 56.6 1021.2 1.9 N 8.8 N 0.0 370.1
07:10 26.1 30.7 54.9 1021.2 1.9 NNE 6.1 WNW 0.0 384.8
07:15 26.6 31.2 54.0 1021.3 2.3 NNE 6.1 NNE 0.0 399.1
07:20 26.5 31.4 54.3 1021.3 3.6 NE 6.1 NE 0.0 414.1
07:25 26.0 31.3 56.2 1021.3 4.1 ENE 8.8 ENE 0.0 429.1
07:30 26.0 31.7 56.8 1021.3 2.8 NE 6.1 NE 0.0 443.7
07:35 26.1 31.8 55.5 1021.3 3.7 NE 8.8 NE 0.0 457.9
07:40 25.9 31.8 56.4 1021.3 5.1 NE 8.8 ENE 0.0 472.4
07:45 25.8 32.2 55.6 1021.3 4.7 ENE 11.5 ENE 0.0 487.4
07:50 25.8 32.6 55.1 1021.3 4.1 ENE 8.8 E 0.0 502.1
07:55 25.7 32.7 54.6 1021.2 6.9 ENE 14.2 E 0.0 515.7
08:00 25.5 32.7 54.9 1021.2 6.4 ENE 11.5 ENE 0.0 529.0
08:05 25.2 32.8 55.5 1021.3 5.6 E 11.5 NE 0.0 542.8
08:10 25.3 32.9 54.6 1021.3 5.6 ENE 11.5 E 0.0 556.1
08:15 25.4 32.9 55.5 1021.3 5.7 ENE 11.5 NE 0.0 569.2
08:20 25.5 33.1 55.6 1021.3 5.5 ENE 8.8 NE 0.0 581.7
08:25 25.6 33.6 56.1 1021.3 4.1 ENE 8.8 ENE 0.0 594.6
08:30 25.9 34.0 54.7 1021.3 4.8 ENE 8.8 ENE 0.0 607.6
08:35 25.9 34.5 55.4 1021.2 4.1 ENE 8.8 ENE 0.0 620.8
08:40 25.9 34.8 55.8 1021.2 4.4 ENE 8.8 E 0.0 633.1
08:45 26.1 34.9 55.9 1021.2 4.5 ENE 11.5 E 0.0 583.0
08:50 26.2 34.7 55.5 1021.1 3.8 ENE 11.5 NE 0.0 657.5
08:55 26.6 35.6 54.0 1021.1 2.3 E 6.1 E 0.0 669.6
09:00 26.4 35.8 55.6 1021.1 5.0 SE 8.8 ESE 0.0 678.5
09:05 26.2 35.9 57.3 1021.1 4.8 ESE 8.8 SE 0.0 689.8
09:10 26.0 35.8 57.6 1021.1 3.9 SE 8.8 ESE 0.0 701.0
09:15 26.3 36.2 56.6 1021.1 3.4 ESE 6.1 S 0.0 711.6
09:20 26.5 36.3 56.0 1021.1 4.3 SE 11.5 SSW 0.0 721.4
09:25 26.8 36.5 55.6 1021.0 3.4 ENE 11.5 NE 0.0 731.3
09:30 26.6 36.4 55.7 1021.0 4.1 ENE 8.8 E 0.0 739.3
09:35 26.6 36.3 56.8 1021.0 4.3 ENE 14.2 E 0.0 748.5
09:40 26.8 36.4 55.8 1021.0 4.7 E 11.5 ESE 0.0 759.0
09:45 26.6 36.2 56.8 1021.0 6.0 ENE 11.5 ENE 0.0 766.1
09:50 26.8 35.9 56.9 1021.0 6.5 ENE 14.2 ENE 0.0 772.0
09:55 26.9 36.0 55.4 1021.0 7.8 ENE 14.2 ENE 0.0 782.3
10:00 26.9 36.2 56.0 1020.9 5.1 E 8.8 ENE 0.0 788.5
10:05 27.3 36.5 54.8 1020.9 4.9 SE 11.5 S 0.0 795.9
10:10 27.2 36.9 54.2 1020.9 3.7 SSE 8.8 SSE 0.0 804.0
10:15 27.6 37.4 53.1 1020.9 6.2 S 11.5 SSE 0.0 757.9
10:20 27.2 36.6 53.2 1020.8 7.6 ESE 14.2 ESE 0.0 818.0
10:25 27.2 36.2 53.7 1020.8 9.2 SSE 16.9 S 0.0 828.0
10:30 27.2 36.5 52.6 1020.8 4.9 SSE 11.5 SSW 0.0 832.0
10:35 27.8 37.2 50.3 1020.7 7.3 S 14.2 S 0.0 842.0
10:40 27.6 37.0 50.4 1020.7 7.7 S 16.9 S 0.0 846.0
10:45 28.1 37.4 49.2 1020.6 7.3 SSE 14.2 S 0.0 850.0
10:50 27.9 37.5 48.5 1020.6 5.2 SE 16.9 ESE 0.0 855.0
10:55 27.7 37.3 48.8 1020.6 6.0 SSE 14.2 SE 0.0 860.0
11:00 28.1 37.4 48.9 1020.6 9.1 S 16.9 SSW 0.0 863.0
11:05 28.1 37.7 49.4 1020.6 6.5 SSE 14.2 SSE 0.0 866.0
11:10 28.1 37.6 50.9 1020.5 7.0 SSW 14.2 SSW 0.0 869.0
11:15 28.2 37.6 49.2 1020.5 7.9 S 14.2 S 0.0 870.0
11:20 28.1 37.6 49.9 1020.5 8.4 S 16.9 SSW 0.0 875.0
11:25 28.2 37.3 50.6 1020.5 8.4 S 19.6 SSW 0.0 875.0
11:30 28.4 37.3 51.2 1020.5 6.3 SSE 16.9 SSW 0.0 876.0
11:35 28.4 37.5 51.9 1020.5 8.1 S 16.9 S 0.0 879.0
11:40 28.3 37.7 51.7 1020.5 6.6 SE 14.2 ESE 0.0 878.0
11:45 28.0 37.5 53.9 1020.5 3.9 ENE 14.2 ENE 0.0 879.0
11:50 27.6 36.9 55.7 1020.4 8.1 ENE 16.9 ENE 0.0 876.0
11:55 27.9 36.8 55.4 1020.3 4.5 SE 14.2 ESE 0.0 878.0
12:00 28.1 37.1 56.3 1020.3 7.8 E 16.9 ESE 0.0 873.0
12:05 27.7 36.8 57.9 1020.2 9.4 E 22.3 ESE 0.0 875.0
12:10 27.6 36.4 59.2 1020.1 7.2 ENE 19.6 NE 0.0 876.0
12:15 27.4 36.1 60.8 1020.1 8.4 NE 16.9 E 0.0 873.0
12:20 27.4 36.4 60.9 1020.1 8.2 ENE 22.3 E 0.0 875.0
12:25 27.2 35.9 62.6 1020.1 10.1 ENE 22.3 ENE 0.0 871.0
12:30 27.4 35.4 61.9 1020.1 9.7 ENE 19.6 ENE 0.0 865.0
12:35 27.4 35.2 61.1 1020.1 10.3 ENE 25.0 ENE 0.0 863.0
12:40 27.1 34.9 61.7 1020.0 9.1 E 16.9 E 0.0 806.0
12:45 27.1 34.7 62.3 1020.0 10.2 ENE 22.3 ENE 0.0 851.0
12:50 27.3 34.9 62.3 1019.9 8.8 ENE 16.9 E 0.0 842.0
12:55 27.0 34.3 62.8 1019.9 10.1 NE 25.0 NNE 0.0 834.0
13:00 27.2 33.9 61.7 1019.9 7.9 ENE 19.6 ENE 0.0 836.0
13:05 27.3 33.4 62.1 1019.8 10.6 ENE 25.0 ENE 0.0 848.0
13:10 27.3 32.5 61.4 1019.8 11.0 ENE 19.6 ESE 0.0 826.0
13:15 27.4 31.9 61.1 1019.8 7.4 ENE 19.6 E 0.0 817.0
13:20 27.3 31.3 60.3 1019.8 8.4 ENE 22.3 NE 0.0 819.0
13:25 27.5 31.1 60.4 1019.8 8.5 ENE 16.9 ENE 0.0 817.0
13:30 27.6 31.0 59.2 1019.8 9.2 ENE 19.6 ENE 0.0 809.0
13:35 27.5 30.9 59.0 1019.7 6.6 NE 14.2 NE 0.0 798.8
13:40 27.5 30.9 57.7 1019.7 9.6 ENE 16.9 ENE 0.0 785.9
13:45 27.3 31.2 56.2 1019.7 9.3 E 19.6 NE 0.0 751.1
13:50 27.3 31.7 56.2 1019.6 9.8 E 19.6 E 0.0 768.2
13:55 27.4 32.0 55.1 1019.6 7.2 E 16.9 ENE 0.0 760.3
14:00 27.6 32.2 54.5 1019.6 9.7 ENE 19.6 E 0.0 740.7
14:05 27.3 32.2 53.0 1019.6 9.5 ESE 16.9 ESE 0.0 728.0
14:10 27.2 31.9 51.6 1019.6 10.6 ESE 19.6 ENE 0.0 711.6
14:15 27.4 31.9 51.5 1019.5 9.3 ENE 19.6 NNE 0.0 713.9
14:20 27.6 32.1 50.3 1019.5 7.4 E 19.6 ESE 0.0 693.9
14:25 27.8 32.7 49.3 1019.5 6.0 ESE 16.9 SE 0.0 692.3
14:30 28.0 32.9 48.9 1019.4 7.6 ENE 14.2 ENE 0.0 642.3
14:35 27.7 32.4 49.0 1019.3 6.4 ENE 11.5 NE 0.0 341.5
14:40 27.3 31.6 49.1 1019.3 8.5 ENE 14.2 E 0.0 543.8
14:45 27.4 32.0 49.4 1019.3 6.4 E 16.9 E 0.0 647.6
14:50 27.7 32.9 48.8 1019.3 6.3 ENE 11.5 NE 0.0 628.3
14:55 27.8 33.5 48.5 1019.3 3.8 ESE 14.2 E 0.0 628.7
15:00 27.8 33.4 47.9 1019.2 7.4 E 14.2 ENE 0.0 611.2
15:05 28.0 34.0 47.8 1019.2 4.9 E 11.5 SE 0.0 607.5
15:10 28.0 34.4 48.6 1019.2 3.6 ESE 11.5 ESE 0.0 602.6
15:15 27.8 33.9 51.0 1019.2 5.6 ESE 14.2 ESE 0.0 465.5
15:20 27.8 33.8 52.6 1019.1 5.9 SE 11.5 ESE 0.0 588.6
15:25 27.8 33.9 54.2 1019.1 7.5 ESE 14.2 NE 0.0 577.5
15:30 27.8 33.9 54.8 1019.0 5.9 SE 14.2 S 0.0 552.6
15:35 27.3 33.5 56.2 1019.0 6.0 ESE 16.9 S 0.0 541.3
15:40 27.2 33.7 57.7 1018.9 4.9 E 11.5 E 0.0 523.4
15:45 27.5 33.1 57.0 1018.9 7.9 ENE 19.6 E 0.0 507.8
15:50 27.5 32.8 56.9 1018.9 6.6 E 14.2 ENE 0.0 482.8
15:55 27.5 33.5 56.6 1018.9 3.7 ESE 11.5 E 0.0 485.3
16:00 27.5 32.9 57.3 1018.8 8.9 ENE 16.9 E 0.0 480.8
16:05 27.6 33.0 57.9 1018.8 5.6 ENE 14.2 E 0.0 468.3
16:10 27.6 33.1 58.3 1018.7 7.9 E 16.9 ENE 0.0 447.4
16:15 27.3 32.9 58.6 1018.7 5.7 E 11.5 ENE 0.0 431.3
16:20 27.3 32.8 59.9 1018.7 6.0 ENE 11.5 ENE 0.0 415.8
16:25 27.2 32.2 60.9 1018.7 5.6 ENE 11.5 NE 0.0 396.5
16:30 27.2 32.5 60.8 1018.6 5.9 ENE 14.2 ENE 0.0 382.5
16:35 27.0 32.4 61.5 1018.6 4.4 ENE 11.5 SE 0.0 365.6
16:40 27.0 31.9 61.5 1018.6 5.3 E 11.5 NE 0.0 354.4
16:45 27.1 31.1 60.4 1018.6 5.5 ESE 11.5 ESE 0.0 343.3
16:50 27.0 29.8 60.8 1018.6 4.5 E 11.5 ESE 0.0 327.4
16:55 26.4 28.2 62.6 1018.6 7.1 ESE 11.5 ESE 0.0 308.5
17:00 26.2 27.2 63.5 1018.6 6.3 ESE 11.5 E 0.0 293.8
17:05 26.2 26.6 63.2 1018.5 5.7 SE 11.5 E 0.0 283.1
17:10 26.1 26.1 63.4 1018.5 5.8 SE 14.2 ESE 0.0 271.1
17:15 25.9 25.8 63.5 1018.5 4.5 E 8.8 ENE 0.0 255.5
17:20 25.9 25.5 63.5 1018.6 3.9 E 8.8 E 0.0 240.6
17:25 25.7 25.3 64.0 1018.5 6.5 SE 14.2 SE 0.0 220.8
17:30 25.6 25.2 64.9 1018.5 4.5 ESE 11.5 E 0.0 133.4
17:35 25.6 25.1 66.3 1018.5 5.7 E 11.5 E 0.0 64.8
17:40 25.6 25.0 66.9 1018.5 5.7 ESE 11.5 SE 0.0 58.0
17:45 25.4 24.8 67.9 1018.5 5.6 E 14.2 ESE 0.0 56.4
17:50 25.2 24.6 68.2 1018.5 3.6 ENE 8.8 ESE 0.0 54.6
17:55 25.1 24.4 68.9 1018.5 2.2 E 6.1 NE 0.0 53.8
18:00 25.0 24.3 68.4 1018.5 5.0 ESE 11.5 ESE 0.0 53.7
18:05 24.8 24.1 69.1 1018.5 4.8 ESE 8.8 ESE 0.0 49.2
18:10 24.8 24.0 68.9 1018.5 4.0 E 8.8 E 0.0 45.8
18:15 24.8 23.9 68.3 1018.5 4.4 E 8.8 ESE 0.0 42.5
18:20 24.8 23.8 68.6 1018.5 4.1 ESE 8.8 ESE 0.0 40.4
18:25 24.6 23.6 69.2 1018.5 3.3 E 8.8 E 0.0 37.9
18:30 24.5 23.4 69.2 1018.5 3.3 ESE 8.8 ESE 0.0 36.6
18:35 24.4 23.3 69.4 1018.6 4.5 SE 8.8 ESE 0.0 34.0
18:40 24.2 23.2 68.5 1018.7 4.4 SE 8.8 ESE 0.0 30.5
18:45 24.2 23.1 67.6 1018.7 4.3 ESE 6.1 ESE 0.0 27.0
18:50 24.2 22.9 67.0 1018.7 2.5 ESE 6.1 ESE 0.0 23.7
18:55 24.1 22.6 67.3 1018.7 1.6 E 6.1 SE 0.0 20.1
19:00 23.8 22.2 68.1 1018.7 0.2 ENE 3.4 E 0.0 16.6
19:05 23.6 21.5 69.1 1018.7 0.0 NNE 0.0 ENE 0.0 13.6
19:10 23.4 21.1 70.2 1018.7 0.0 NNE 0.0 NE 0.0 10.5
19:15 23.3 20.7 70.6 1018.7 0.0 NNE 0.0 NE 0.0 7.2
19:20 23.2 20.4 71.0 1018.8 0.0 NNE 0.0 E 0.0 4.0
19:25 23.1 20.0 71.5 1018.8 0.0 NNE 0.0 E 0.0 2.6
19:30 23.0 19.7 71.6 1018.8 0.0 NNE 0.0 E 0.0 1.6
19:35 23.0 19.6 71.8 1018.8 0.0 NNE 0.0 ENE 0.0 0.9
19:40 22.9 19.7 73.2 1018.8 0.0 NNE 0.0 ENE 0.0 0.5
19:45 23.0 19.8 74.1 1018.8 0.0 NNE 0.0 ENE 0.0 0.3
19:50 23.1 19.9 73.6 1018.8 0.0 NNE 0.0 NNE 0.0 0.2
19:55 23.0 20.2 74.9 1018.8 0.0 NNE 0.0 WNW 0.0 0.2
20:00 22.9 20.2 75.2 1018.8 0.0 NNE 0.0 WNW 0.0 0.2
20:05 22.7 20.2 75.8 1018.9 0.0 NNE 0.0 WNW 0.0 0.1
20:10 22.5 20.0 76.4 1018.9 0.0 NNE 0.0 W 0.0 0.1
20:15 22.4 19.6 77.2 1018.9 0.0 NNE 0.0 WSW 0.0 0.1
20:20 22.2 19.2 78.0 1018.9 0.0 NNE 0.0 W 0.0 0.1
20:25 22.1 18.9 78.6 1018.9 0.0 NNE 0.0 WSW 0.0 0.1
20:30 22.0 18.6 79.2 1018.9 0.0 NNE 0.0 W 0.0 0.1
20:35 21.9 18.4 79.2 1018.9 0.0 NNE 0.0 WSW 0.0 0.1
20:40 21.8 18.5 79.9 1018.9 0.1 W 3.4 WSW 0.0 0.1
20:45 21.7 18.4 80.1 1018.9 1.5 WSW 6.1 W 0.0 0.1
20:50 21.6 18.3 80.3 1018.9 0.7 WSW 3.4 WSW 0.0 0.1
20:55 21.5 18.4 80.6 1018.9 1.2 WSW 6.1 SW 0.0 0.1
21:00 21.5 18.5 80.9 1018.9 1.1 WSW 6.1 WSW 0.0 0.1
21:05 21.4 18.3 81.0 1018.9 0.7 WSW 6.1 WSW 0.0 0.1
21:10 21.3 18.2 81.5 1018.9 1.2 WSW 6.1 WSW 0.0 0.1
21:15 21.2 18.1 81.6 1018.9 1.0 WSW 3.4 WNW 0.0 0.2
21:20 21.1 18.0 81.7 1018.9 2.2 SW 6.1 SW 0.0 0.1
21:25 21.1 18.1 81.7 1018.9 1.8 WSW 6.1 SW 0.0 0.2
21:30 21.0 17.9 81.9 1018.9 1.3 WSW 6.1 W 0.0 0.1
21:35 20.9 17.9 82.2 1018.9 1.2 SW 3.4 SW 0.0 0.2
21:40 20.8 17.8 82.0 1018.9 1.1 WSW 3.4 SW 0.0 0.2
21:45 20.8 17.9 82.4 1018.9 0.6 WSW 6.1 SW 0.0 0.1
21:50 20.8 18.0 82.4 1018.9 1.7 WSW 6.1 WSW 0.0 0.1
21:55 20.7 17.7 82.4 1018.9 1.2 WSW 3.4 SW 0.0 0.1
22:00 20.8 17.8 82.2 1018.8 0.7 SSW 3.4 SSW 0.0 0.2
22:05 20.9 17.9 81.6 1018.8 1.9 WSW 6.1 WSW 0.0 0.1
22:10 20.9 17.8 81.5 1018.9 0.3 W 3.4 W 0.0 0.1
22:15 20.8 17.8 81.5 1018.9 1.6 W 6.1 W 0.0 0.1
22:20 20.7 17.9 81.6 1018.8 1.7 WSW 6.1 WSW 0.0 0.1
22:25 20.6 18.0 81.4 1018.8 2.0 W 6.1 WNW 0.0 0.1
22:30 20.5 17.9 81.3 1018.8 1.0 WSW 3.4 W 0.0 0.1
22:35 20.5 18.0 81.2 1018.7 0.1 WSW 3.4 WSW 0.0 0.1
Máxima 28.6 37.7 86.2 1022.2 11.0 ENE 25.0 ENE 0.0 879.0
Mínima 18.5 15.0 47.8 1018.5
Total 0.0